KLLJ

Details ICAO KLLJ
Name CHALLIS
Region United States
Timezone America/Boise (UTC-7.0)
Plans Departing 2
Arriving 3
Stats Elevation 5,072 ft / 1,546 m (AMSL)
Location 44.522917° -114.217500°
Runways 1
Magnetic Variation 12.897° E
Sunrise 2017-12-11 15:05:03 UTC / 2017-12-11 08:05:03 Local
Sunset 2017-12-11 23:58:24 UTC / 2017-12-11 16:58:24 Local
Advertisement - Login to hide

Runways

ID Width Length Bearing (true) Bearing (mag) Surface Threshold Offset Overrun Length
16 60 ft / 18 m 4,564 ft / 1,391 m 181.82° 168.92° Asphalt 0 ft / 0 m 0 ft / 0 m
34 60 ft / 18 m 4,564 ft / 1,391 m 1.82° 348.92° Asphalt 0 ft / 0 m 0 ft / 0 m

Map

Weather


0- 5 10 15 20 25 30 35+ Temperature / ° C

Clouds and Precipitation
Forecast for 2017-12-11 18:00 UTC. Updated 12 minutes ago

Ground ~20,000 ft ~40,000 ft Winds

METAR

KLLJ 111455Z AUTO 00000KT 10SM CLR M14/M17 A3066 RMK AO2 SLP463 I1000 I3000 T11391167 52007

TAF

Not found

Frequencies

Recorded 119.27 MHz ASOS
Unicom 122.80 MHz CTAF/UNICOM
Warning: Do not use this data for real-world aviation or navigation. No guarantee of current accuracy is given.